sensor_id;sensor_type;location;lat;lon;timestamp;temperature;humidity
9998;DHT22;5038;53.064;8.624;2023-06-26T00:00:00;23.70;99.90
9998;DHT22;5038;53.064;8.624;2023-06-26T00:02:31;23.70;99.90
9998;DHT22;5038;53.064;8.624;2023-06-26T00:05:00;23.70;99.90
9998;DHT22;5038;53.064;8.624;2023-06-26T00:07:29;23.60;99.90
9998;DHT22;5038;53.064;8.624;2023-06-26T00:10:03;23.50;99.90
9998;DHT22;5038;53.064;8.624;2023-06-26T00:12:31;23.50;99.90
9998;DHT22;5038;53.064;8.624;2023-06-26T00:14:59;23.50;99.90
9998;DHT22;5038;53.064;8.624;2023-06-26T00:17:28;23.50;99.90
9998;DHT22;5038;53.064;8.624;2023-06-26T00:19:56;23.50;99.90
9998;DHT22;5038;53.064;8.624;2023-06-26T00:22:24;23.40;99.90
9998;DHT22;5038;53.064;8.624;2023-06-26T00:24:52;23.40;99.90
9998;DHT22;5038;53.064;8.624;2023-06-26T00:27:22;23.40;99.90
9998;DHT22;5038;53.064;8.624;2023-06-26T00:29:50;23.30;99.90
9998;DHT22;5038;53.064;8.624;2023-06-26T00:32:19;23.30;99.90
9998;DHT22;5038;53.064;8.624;2023-06-26T00:34:47;23.30;99.90
9998;DHT22;5038;53.064;8.624;2023-06-26T00:37:16;23.30;99.90
9998;DHT22;5038;53.064;8.624;2023-06-26T00:39:44;23.20;99.90
9998;DHT22;5038;53.064;8.624;2023-06-26T00:42:12;23.20;99.90
9998;DHT22;5038;53.064;8.624;2023-06-26T00:44:45;23.20;99.90
9998;DHT22;5038;53.064;8.624;2023-06-26T00:47:15;23.20;99.90
9998;DHT22;5038;53.064;8.624;2023-06-26T00:49:44;23.20;99.90
9998;DHT22;5038;53.064;8.624;2023-06-26T00:52:13;23.10;99.90
9998;DHT22;5038;53.064;8.624;2023-06-26T00:54:41;23.10;99.90
9998;DHT22;5038;53.064;8.624;2023-06-26T00:57:09;23.00;99.90
9998;DHT22;5038;53.064;8.624;2023-06-26T00:59:38;23.00;99.90
9998;DHT22;5038;53.064;8.624;2023-06-26T01:02:07;23.00;99.90
9998;DHT22;5038;53.064;8.624;2023-06-26T01:04:36;23.00;99.90
9998;DHT22;5038;53.064;8.624;2023-06-26T01:07:07;23.00;99.90
9998;DHT22;5038;53.064;8.624;2023-06-26T01:09:36;22.90;99.90
9998;DHT22;5038;53.064;8.624;2023-06-26T01:12:04;22.90;99.90
9998;DHT22;5038;53.064;8.624;2023-06-26T01:14:33;22.90;99.90
9998;DHT22;5038;53.064;8.624;2023-06-26T01:17:02;22.90;99.90
9998;DHT22;5038;53.064;8.624;2023-06-26T01:19:33;22.90;99.90
9998;DHT22;5038;53.064;8.624;2023-06-26T01:22:09;22.90;99.90
9998;DHT22;5038;53.064;8.624;2023-06-26T01:24:47;22.80;99.90
9998;DHT22;5038;53.064;8.624;2023-06-26T01:27:21;22.80;99.90
9998;DHT22;5038;53.064;8.624;2023-06-26T01:29:51;22.80;99.90
9998;DHT22;5038;53.064;8.624;2023-06-26T01:32:21;22.70;99.90
9998;DHT22;5038;53.064;8.624;2023-06-26T01:34:53;22.80;99.90
9998;DHT22;5038;53.064;8.624;2023-06-26T01:37:21;22.70;99.90
9998;DHT22;5038;53.064;8.624;2023-06-26T01:39:49;22.70;99.90
9998;DHT22;5038;53.064;8.624;2023-06-26T01:42:18;22.60;99.90
9998;DHT22;5038;53.064;8.624;2023-06-26T01:44:47;22.60;99.90
9998;DHT22;5038;53.064;8.624;2023-06-26T01:47:19;22.60;99.90
9998;DHT22;5038;53.064;8.624;2023-06-26T01:49:59;22.60;99.90
9998;DHT22;5038;53.064;8.624;2023-06-26T01:52:35;22.50;99.90
9998;DHT22;5038;53.064;8.624;2023-06-26T01:55:12;22.50;99.90
9998;DHT22;5038;53.064;8.624;2023-06-26T01:57:44;22.50;99.90
9998;DHT22;5038;53.064;8.624;2023-06-26T02:00:16;22.50;99.90
9998;DHT22;5038;53.064;8.624;2023-06-26T02:02:46;22.40;99.90
9998;DHT22;5038;53.064;8.624;2023-06-26T02:05:14;22.40;99.90
9998;DHT22;5038;53.064;8.624;2023-06-26T02:07:42;22.40;99.90
9998;DHT22;5038;53.064;8.624;2023-06-26T02:10:11;22.40;99.90
9998;DHT22;5038;53.064;8.624;2023-06-26T02:12:39;22.30;99.90
9998;DHT22;5038;53.064;8.624;2023-06-26T02:15:08;22.30;99.90
9998;DHT22;5038;53.064;8.624;2023-06-26T02:17:40;22.30;99.90
9998;DHT22;5038;53.064;8.624;2023-06-26T02:20:09;22.30;99.90
9998;DHT22;5038;53.064;8.624;2023-06-26T02:22:37;22.20;99.90
9998;DHT22;5038;53.064;8.624;2023-06-26T02:25:09;22.20;99.90
9998;DHT22;5038;53.064;8.624;2023-06-26T02:27:37;22.20;99.90
9998;DHT22;5038;53.064;8.624;2023-06-26T02:30:07;22.20;99.90
9998;DHT22;5038;53.064;8.624;2023-06-26T02:32:36;22.10;99.90
9998;DHT22;5038;53.064;8.624;2023-06-26T02:35:07;22.10;99.90
9998;DHT22;5038;53.064;8.624;2023-06-26T02:37:35;22.10;99.90
9998;DHT22;5038;53.064;8.624;2023-06-26T02:40:04;22.10;99.90
9998;DHT22;5038;53.064;8.624;2023-06-26T02:42:35;22.10;99.90
9998;DHT22;5038;53.064;8.624;2023-06-26T02:45:05;22.00;99.90
9998;DHT22;5038;53.064;8.624;2023-06-26T02:47:33;22.00;99.90
9998;DHT22;5038;53.064;8.624;2023-06-26T02:50:01;22.00;99.90
9998;DHT22;5038;53.064;8.624;2023-06-26T02:52:46;22.00;99.90
9998;DHT22;5038;53.064;8.624;2023-06-26T02:55:17;21.90;99.90
9998;DHT22;5038;53.064;8.624;2023-06-26T02:57:49;21.90;99.90
9998;DHT22;5038;53.064;8.624;2023-06-26T03:00:17;21.90;99.90
9998;DHT22;5038;53.064;8.624;2023-06-26T03:02:49;21.90;99.90
9998;DHT22;5038;53.064;8.624;2023-06-26T03:05:19;21.80;99.90
9998;DHT22;5038;53.064;8.624;2023-06-26T03:07:49;21.80;99.90
9998;DHT22;5038;53.064;8.624;2023-06-26T03:10:17;21.80;99.90
9998;DHT22;5038;53.064;8.624;2023-06-26T03:12:45;21.80;99.90
9998;DHT22;5038;53.064;8.624;2023-06-26T03:15:13;21.80;99.90
9998;DHT22;5038;53.064;8.624;2023-06-26T03:17:41;21.80;99.90
9998;DHT22;5038;53.064;8.624;2023-06-26T03:20:14;21.70;99.90
9998;DHT22;5038;53.064;8.624;2023-06-26T03:22:54;21.70;99.90
9998;DHT22;5038;53.064;8.624;2023-06-26T03:25:23;21.70;99.90
9998;DHT22;5038;53.064;8.624;2023-06-26T03:28:02;21.70;99.90
9998;DHT22;5038;53.064;8.624;2023-06-26T03:30:32;21.70;99.90
9998;DHT22;5038;53.064;8.624;2023-06-26T03:33:04;21.70;99.90
9998;DHT22;5038;53.064;8.624;2023-06-26T03:35:33;21.60;99.90
9998;DHT22;5038;53.064;8.624;2023-06-26T03:38:03;21.60;99.90
9998;DHT22;5038;53.064;8.624;2023-06-26T03:40:32;21.60;99.90
9998;DHT22;5038;53.064;8.624;2023-06-26T03:43:00;21.60;99.90
9998;DHT22;5038;53.064;8.624;2023-06-26T03:45:39;21.60;99.90
9998;DHT22;5038;53.064;8.624;2023-06-26T03:48:07;21.60;99.90
9998;DHT22;5038;53.064;8.624;2023-06-26T03:50:36;21.60;99.90
9998;DHT22;5038;53.064;8.624;2023-06-26T03:53:06;21.60;99.90
9998;DHT22;5038;53.064;8.624;2023-06-26T03:55:34;21.60;99.90
9998;DHT22;5038;53.064;8.624;2023-06-26T03:58:04;21.60;99.90
9998;DHT22;5038;53.064;8.624;2023-06-26T04:00:32;21.50;99.90
9998;DHT22;5038;53.064;8.624;2023-06-26T04:03:00;21.50;99.90
9998;DHT22;5038;53.064;8.624;2023-06-26T04:05:30;21.50;99.90
9998;DHT22;5038;53.064;8.624;2023-06-26T04:07:58;21.50;99.90
9998;DHT22;5038;53.064;8.624;2023-06-26T04:10:28;21.50;99.90
9998;DHT22;5038;53.064;8.624;2023-06-26T04:12:56;21.50;99.90
9998;DHT22;5038;53.064;8.624;2023-06-26T04:15:24;21.50;99.90
9998;DHT22;5038;53.064;8.624;2023-06-26T04:17:52;21.50;99.90
9998;DHT22;5038;53.064;8.624;2023-06-26T04:20:21;21.50;99.90
9998;DHT22;5038;53.064;8.624;2023-06-26T04:22:50;21.50;99.90
9998;DHT22;5038;53.064;8.624;2023-06-26T04:25:19;21.50;99.90
9998;DHT22;5038;53.064;8.624;2023-06-26T04:27:48;21.50;99.90
9998;DHT22;5038;53.064;8.624;2023-06-26T04:30:16;21.60;99.90
9998;DHT22;5038;53.064;8.624;2023-06-26T04:32:44;21.60;99.90
9998;DHT22;5038;53.064;8.624;2023-06-26T04:35:13;21.60;99.90
9998;DHT22;5038;53.064;8.624;2023-06-26T04:37:41;21.60;99.90
9998;DHT22;5038;53.064;8.624;2023-06-26T04:40:10;21.60;99.90
9998;DHT22;5038;53.064;8.624;2023-06-26T04:42:38;21.60;99.90
9998;DHT22;5038;53.064;8.624;2023-06-26T04:45:08;21.70;99.90
9998;DHT22;5038;53.064;8.624;2023-06-26T04:47:36;21.70;99.90
9998;DHT22;5038;53.064;8.624;2023-06-26T04:50:07;21.70;99.90
9998;DHT22;5038;53.064;8.624;2023-06-26T04:52:36;21.70;99.90
9998;DHT22;5038;53.064;8.624;2023-06-26T04:55:04;21.80;99.90
9998;DHT22;5038;53.064;8.624;2023-06-26T04:57:33;21.80;99.90
9998;DHT22;5038;53.064;8.624;2023-06-26T05:00:01;21.80;99.90
9998;DHT22;5038;53.064;8.624;2023-06-26T05:02:30;21.80;99.90
9998;DHT22;5038;53.064;8.624;2023-06-26T05:04:59;21.90;99.90
9998;DHT22;5038;53.064;8.624;2023-06-26T05:07:27;21.90;99.90
9998;DHT22;5038;53.064;8.624;2023-06-26T05:09:56;22.00;99.90
9998;DHT22;5038;53.064;8.624;2023-06-26T05:12:24;22.00;99.90
9998;DHT22;5038;53.064;8.624;2023-06-26T05:14:52;22.00;99.90
9998;DHT22;5038;53.064;8.624;2023-06-26T05:17:20;22.10;99.90
9998;DHT22;5038;53.064;8.624;2023-06-26T05:19:50;22.10;99.90
9998;DHT22;5038;53.064;8.624;2023-06-26T05:22:18;22.10;99.90
9998;DHT22;5038;53.064;8.624;2023-06-26T05:24:47;22.20;99.90
9998;DHT22;5038;53.064;8.624;2023-06-26T05:27:16;22.20;99.90
9998;DHT22;5038;53.064;8.624;2023-06-26T05:29:49;22.30;99.90
9998;DHT22;5038;53.064;8.624;2023-06-26T05:32:18;22.30;99.90
9998;DHT22;5038;53.064;8.624;2023-06-26T05:34:47;22.40;99.90
9998;DHT22;5038;53.064;8.624;2023-06-26T05:37:20;22.40;99.90
9998;DHT22;5038;53.064;8.624;2023-06-26T05:39:49;22.50;99.90
9998;DHT22;5038;53.064;8.624;2023-06-26T05:42:18;22.60;99.90
9998;DHT22;5038;53.064;8.624;2023-06-26T05:44:46;22.70;99.90
9998;DHT22;5038;53.064;8.624;2023-06-26T05:47:14;22.90;99.90
9998;DHT22;5038;53.064;8.624;2023-06-26T05:49:42;23.00;99.90
9998;DHT22;5038;53.064;8.624;2023-06-26T05:52:12;23.10;99.90
9998;DHT22;5038;53.064;8.624;2023-06-26T05:54:42;23.20;99.90
9998;DHT22;5038;53.064;8.624;2023-06-26T05:57:12;23.40;99.90
9998;DHT22;5038;53.064;8.624;2023-06-26T05:59:43;23.50;99.90
9998;DHT22;5038;53.064;8.624;2023-06-26T06:02:11;23.70;99.90
9998;DHT22;5038;53.064;8.624;2023-06-26T06:04:40;23.80;99.90
9998;DHT22;5038;53.064;8.624;2023-06-26T06:07:08;24.00;99.90
9998;DHT22;5038;53.064;8.624;2023-06-26T06:09:36;24.10;99.90
9998;DHT22;5038;53.064;8.624;2023-06-26T06:12:07;24.30;99.90
9998;DHT22;5038;53.064;8.624;2023-06-26T06:14:35;24.50;99.90
9998;DHT22;5038;53.064;8.624;2023-06-26T06:17:04;24.60;99.90
9998;DHT22;5038;53.064;8.624;2023-06-26T06:19:32;24.80;99.90
9998;DHT22;5038;53.064;8.624;2023-06-26T06:22:00;25.00;99.90
9998;DHT22;5038;53.064;8.624;2023-06-26T06:24:28;25.10;99.90
9998;DHT22;5038;53.064;8.624;2023-06-26T06:26:56;25.30;99.90
9998;DHT22;5038;53.064;8.624;2023-06-26T06:29:25;25.50;99.90
9998;DHT22;5038;53.064;8.624;2023-06-26T06:31:53;25.60;99.90
9998;DHT22;5038;53.064;8.624;2023-06-26T06:34:22;25.70;99.90
9998;DHT22;5038;53.064;8.624;2023-06-26T06:36:50;25.80;99.90
9998;DHT22;5038;53.064;8.624;2023-06-26T06:39:18;25.90;99.90
9998;DHT22;5038;53.064;8.624;2023-06-26T06:41:46;26.10;99.90
9998;DHT22;5038;53.064;8.624;2023-06-26T06:44:15;26.10;99.90
9998;DHT22;5038;53.064;8.624;2023-06-26T06:46:45;26.10;99.90
9998;DHT22;5038;53.064;8.624;2023-06-26T06:49:13;26.20;99.90
9998;DHT22;5038;53.064;8.624;2023-06-26T06:51:41;26.30;99.90
9998;DHT22;5038;53.064;8.624;2023-06-26T06:54:10;26.30;99.90
9998;DHT22;5038;53.064;8.624;2023-06-26T06:56:38;26.50;99.90
9998;DHT22;5038;53.064;8.624;2023-06-26T06:59:06;26.50;99.90
9998;DHT22;5038;53.064;8.624;2023-06-26T07:01:35;26.50;99.90
9998;DHT22;5038;53.064;8.624;2023-06-26T07:04:04;26.50;99.90
9998;DHT22;5038;53.064;8.624;2023-06-26T07:06:33;26.50;99.90
9998;DHT22;5038;53.064;8.624;2023-06-26T07:09:02;26.40;99.90
9998;DHT22;5038;53.064;8.624;2023-06-26T07:11:30;26.40;99.90
9998;DHT22;5038;53.064;8.624;2023-06-26T07:13:58;26.30;99.90
9998;DHT22;5038;53.064;8.624;2023-06-26T07:16:26;26.20;99.90
9998;DHT22;5038;53.064;8.624;2023-06-26T07:18:56;26.20;99.90
9998;DHT22;5038;53.064;8.624;2023-06-26T07:21:26;26.20;99.90
9998;DHT22;5038;53.064;8.624;2023-06-26T07:23:55;26.20;99.90
9998;DHT22;5038;53.064;8.624;2023-06-26T07:26:23;26.30;99.90
9998;DHT22;5038;53.064;8.624;2023-06-26T07:29:10;26.40;99.90
9998;DHT22;5038;53.064;8.624;2023-06-26T07:31:38;26.50;99.90
9998;DHT22;5038;53.064;8.624;2023-06-26T07:34:06;26.60;99.90
9998;DHT22;5038;53.064;8.624;2023-06-26T07:36:37;26.60;99.90
9998;DHT22;5038;53.064;8.624;2023-06-26T07:39:05;26.70;99.90
9998;DHT22;5038;53.064;8.624;2023-06-26T07:41:35;26.70;99.90
9998;DHT22;5038;53.064;8.624;2023-06-26T07:44:03;26.70;99.90
9998;DHT22;5038;53.064;8.624;2023-06-26T07:46:33;26.60;99.90
9998;DHT22;5038;53.064;8.624;2023-06-26T07:49:01;26.60;99.90
9998;DHT22;5038;53.064;8.624;2023-06-26T07:51:29;26.50;99.90
9998;DHT22;5038;53.064;8.624;2023-06-26T07:53:59;26.50;99.90
9998;DHT22;5038;53.064;8.624;2023-06-26T07:56:27;26.40;99.90
9998;DHT22;5038;53.064;8.624;2023-06-26T07:58:55;26.40;99.90
9998;DHT22;5038;53.064;8.624;2023-06-26T08:01:24;26.30;99.90
9998;DHT22;5038;53.064;8.624;2023-06-26T08:03:52;26.20;99.90
9998;DHT22;5038;53.064;8.624;2023-06-26T08:06:21;26.20;99.90
9998;DHT22;5038;53.064;8.624;2023-06-26T08:08:49;26.10;99.90
9998;DHT22;5038;53.064;8.624;2023-06-26T08:11:19;26.10;99.90
9998;DHT22;5038;53.064;8.624;2023-06-26T08:13:47;26.00;99.90
9998;DHT22;5038;53.064;8.624;2023-06-26T08:16:15;25.90;99.90
9998;DHT22;5038;53.064;8.624;2023-06-26T08:18:46;25.80;99.90
9998;DHT22;5038;53.064;8.624;2023-06-26T08:21:14;25.60;99.90
9998;DHT22;5038;53.064;8.624;2023-06-26T08:23:42;25.40;99.90
9998;DHT22;5038;53.064;8.624;2023-06-26T08:26:10;25.20;99.90
9998;DHT22;5038;53.064;8.624;2023-06-26T08:28:40;25.00;99.90
9998;DHT22;5038;53.064;8.624;2023-06-26T08:31:08;24.70;99.90
9998;DHT22;5038;53.064;8.624;2023-06-26T08:33:37;24.30;99.90
9998;DHT22;5038;53.064;8.624;2023-06-26T08:36:05;24.10;99.90
9998;DHT22;5038;53.064;8.624;2023-06-26T08:38:33;23.80;99.90
9998;DHT22;5038;53.064;8.624;2023-06-26T08:41:01;23.70;99.90
9998;DHT22;5038;53.064;8.624;2023-06-26T08:43:29;23.50;99.90
9998;DHT22;5038;53.064;8.624;2023-06-26T08:45:59;23.50;99.90
9998;DHT22;5038;53.064;8.624;2023-06-26T08:48:29;23.40;99.90
9998;DHT22;5038;53.064;8.624;2023-06-26T08:51:02;23.30;99.90
9998;DHT22;5038;53.064;8.624;2023-06-26T08:53:39;23.20;99.90
9998;DHT22;5038;53.064;8.624;2023-06-26T08:56:08;23.20;99.90
9998;DHT22;5038;53.064;8.624;2023-06-26T08:58:37;23.10;99.90
9998;DHT22;5038;53.064;8.624;2023-06-26T09:01:11;23.10;99.90
9998;DHT22;5038;53.064;8.624;2023-06-26T09:03:43;23.10;99.90
9998;DHT22;5038;53.064;8.624;2023-06-26T09:06:11;23.10;99.90
9998;DHT22;5038;53.064;8.624;2023-06-26T09:08:40;23.10;99.90
9998;DHT22;5038;53.064;8.624;2023-06-26T09:11:08;23.00;99.90
9998;DHT22;5038;53.064;8.624;2023-06-26T09:13:36;23.00;99.90
9998;DHT22;5038;53.064;8.624;2023-06-26T09:16:06;23.00;99.90
9998;DHT22;5038;53.064;8.624;2023-06-26T09:18:36;22.90;99.90
9998;DHT22;5038;53.064;8.624;2023-06-26T09:21:07;22.90;99.90
9998;DHT22;5038;53.064;8.624;2023-06-26T09:23:36;22.90;99.90
9998;DHT22;5038;53.064;8.624;2023-06-26T09:26:05;22.90;99.90
9998;DHT22;5038;53.064;8.624;2023-06-26T09:28:35;23.00;99.90
9998;DHT22;5038;53.064;8.624;2023-06-26T09:31:04;23.00;99.90
9998;DHT22;5038;53.064;8.624;2023-06-26T09:33:37;23.00;99.90
9998;DHT22;5038;53.064;8.624;2023-06-26T09:36:06;23.10;99.90
9998;DHT22;5038;53.064;8.624;2023-06-26T09:38:36;23.20;99.90
9998;DHT22;5038;53.064;8.624;2023-06-26T09:41:04;23.30;99.90
9998;DHT22;5038;53.064;8.624;2023-06-26T09:43:33;23.30;99.90
9998;DHT22;5038;53.064;8.624;2023-06-26T09:46:03;23.30;99.90
9998;DHT22;5038;53.064;8.624;2023-06-26T09:48:31;23.30;99.90
9998;DHT22;5038;53.064;8.624;2023-06-26T09:51:01;23.30;99.90
9998;DHT22;5038;53.064;8.624;2023-06-26T09:53:42;23.30;99.90
9998;DHT22;5038;53.064;8.624;2023-06-26T09:56:15;23.30;99.90
9998;DHT22;5038;53.064;8.624;2023-06-26T09:58:44;23.40;99.90
9998;DHT22;5038;53.064;8.624;2023-06-26T10:01:13;23.40;99.90
9998;DHT22;5038;53.064;8.624;2023-06-26T10:03:42;23.50;99.90
9998;DHT22;5038;53.064;8.624;2023-06-26T10:06:12;23.50;99.90
9998;DHT22;5038;53.064;8.624;2023-06-26T10:08:41;23.60;99.90
9998;DHT22;5038;53.064;8.624;2023-06-26T10:11:16;23.70;99.90
9998;DHT22;5038;53.064;8.624;2023-06-26T10:13:45;23.70;99.90
9998;DHT22;5038;53.064;8.624;2023-06-26T10:16:18;23.80;99.90
9998;DHT22;5038;53.064;8.624;2023-06-26T10:18:53;23.80;99.90
9998;DHT22;5038;53.064;8.624;2023-06-26T10:21:26;23.80;99.90
9998;DHT22;5038;53.064;8.624;2023-06-26T10:23:57;23.80;99.90
9998;DHT22;5038;53.064;8.624;2023-06-26T10:26:26;23.80;99.90
9998;DHT22;5038;53.064;8.624;2023-06-26T10:28:57;23.80;99.90
9998;DHT22;5038;53.064;8.624;2023-06-26T10:31:26;23.80;99.90
9998;DHT22;5038;53.064;8.624;2023-06-26T10:33:58;23.90;99.90
9998;DHT22;5038;53.064;8.624;2023-06-26T10:36:31;23.90;99.90
9998;DHT22;5038;53.064;8.624;2023-06-26T10:39:04;23.90;99.90
9998;DHT22;5038;53.064;8.624;2023-06-26T10:41:38;23.90;99.90
9998;DHT22;5038;53.064;8.624;2023-06-26T10:44:27;23.90;99.90
9998;DHT22;5038;53.064;8.624;2023-06-26T10:47:07;23.90;99.90
9998;DHT22;5038;53.064;8.624;2023-06-26T10:49:36;24.00;99.90
9998;DHT22;5038;53.064;8.624;2023-06-26T10:52:10;24.00;99.90
9998;DHT22;5038;53.064;8.624;2023-06-26T10:54:38;24.00;99.90
9998;DHT22;5038;53.064;8.624;2023-06-26T10:57:07;24.10;99.90
9998;DHT22;5038;53.064;8.624;2023-06-26T10:59:39;24.10;99.90
9998;DHT22;5038;53.064;8.624;2023-06-26T11:02:07;24.20;99.90
9998;DHT22;5038;53.064;8.624;2023-06-26T11:04:38;24.30;99.90
9998;DHT22;5038;53.064;8.624;2023-06-26T11:07:19;24.30;99.90
9998;DHT22;5038;53.064;8.624;2023-06-26T11:09:59;24.30;99.90
9998;DHT22;5038;53.064;8.624;2023-06-26T11:12:35;24.30;99.90
9998;DHT22;5038;53.064;8.624;2023-06-26T11:15:04;24.30;99.90
9998;DHT22;5038;53.064;8.624;2023-06-26T11:17:35;24.30;99.90
9998;DHT22;5038;53.064;8.624;2023-06-26T11:20:05;24.30;99.90
9998;DHT22;5038;53.064;8.624;2023-06-26T11:22:37;24.30;99.90
9998;DHT22;5038;53.064;8.624;2023-06-26T11:25:07;24.20;99.90
9998;DHT22;5038;53.064;8.624;2023-06-26T11:27:38;24.30;99.90
9998;DHT22;5038;53.064;8.624;2023-06-26T11:30:09;24.30;99.90
9998;DHT22;5038;53.064;8.624;2023-06-26T11:32:38;24.30;99.90
9998;DHT22;5038;53.064;8.624;2023-06-26T11:35:07;24.30;99.90
9998;DHT22;5038;53.064;8.624;2023-06-26T11:37:38;24.40;99.90
9998;DHT22;5038;53.064;8.624;2023-06-26T11:40:16;24.50;99.90
9998;DHT22;5038;53.064;8.624;2023-06-26T11:42:45;24.50;99.90
9998;DHT22;5038;53.064;8.624;2023-06-26T11:45:14;24.50;99.90
9998;DHT22;5038;53.064;8.624;2023-06-26T11:47:42;24.50;99.90
9998;DHT22;5038;53.064;8.624;2023-06-26T11:50:15;24.50;99.90
9998;DHT22;5038;53.064;8.624;2023-06-26T11:52:45;24.60;99.90
9998;DHT22;5038;53.064;8.624;2023-06-26T11:55:20;24.70;99.90
9998;DHT22;5038;53.064;8.624;2023-06-26T11:57:49;24.70;99.90
9998;DHT22;5038;53.064;8.624;2023-06-26T12:00:17;24.80;99.90
9998;DHT22;5038;53.064;8.624;2023-06-26T12:02:46;24.80;99.90
9998;DHT22;5038;53.064;8.624;2023-06-26T12:05:15;24.80;99.90
9998;DHT22;5038;53.064;8.624;2023-06-26T12:07:46;24.90;99.90
9998;DHT22;5038;53.064;8.624;2023-06-26T12:10:15;24.90;99.70
9998;DHT22;5038;53.064;8.624;2023-06-26T12:12:43;25.00;99.50
9998;DHT22;5038;53.064;8.624;2023-06-26T12:15:14;25.00;99.40
9998;DHT22;5038;53.064;8.624;2023-06-26T12:17:43;25.00;99.30
9998;DHT22;5038;53.064;8.624;2023-06-26T12:20:18;25.00;99.10
9998;DHT22;5038;53.064;8.624;2023-06-26T12:22:48;25.00;99.00
9998;DHT22;5038;53.064;8.624;2023-06-26T12:25:22;25.00;98.90
9998;DHT22;5038;53.064;8.624;2023-06-26T12:27:50;24.90;98.90
9998;DHT22;5038;53.064;8.624;2023-06-26T12:30:19;24.90;98.90
9998;DHT22;5038;53.064;8.624;2023-06-26T12:32:47;24.90;98.90
9998;DHT22;5038;53.064;8.624;2023-06-26T12:35:16;24.80;98.80
9998;DHT22;5038;53.064;8.624;2023-06-26T12:37:44;24.90;98.70
9998;DHT22;5038;53.064;8.624;2023-06-26T12:40:18;24.90;98.60
9998;DHT22;5038;53.064;8.624;2023-06-26T12:42:49;25.00;98.70
9998;DHT22;5038;53.064;8.624;2023-06-26T12:45:17;25.00;98.70
9998;DHT22;5038;53.064;8.624;2023-06-26T12:47:49;25.10;98.70
9998;DHT22;5038;53.064;8.624;2023-06-26T12:50:18;25.10;98.50
9998;DHT22;5038;53.064;8.624;2023-06-26T12:52:46;25.00;98.40
9998;DHT22;5038;53.064;8.624;2023-06-26T12:55:17;25.00;98.50
9998;DHT22;5038;53.064;8.624;2023-06-26T12:57:45;24.90;98.60
9998;DHT22;5038;53.064;8.624;2023-06-26T13:00:14;24.90;98.50
9998;DHT22;5038;53.064;8.624;2023-06-26T13:02:43;24.90;98.50
9998;DHT22;5038;53.064;8.624;2023-06-26T13:05:12;25.00;98.30
9998;DHT22;5038;53.064;8.624;2023-06-26T13:07:40;25.00;98.30
9998;DHT22;5038;53.064;8.624;2023-06-26T13:10:09;25.00;98.10
9998;DHT22;5038;53.064;8.624;2023-06-26T13:12:39;25.00;97.80
9998;DHT22;5038;53.064;8.624;2023-06-26T13:15:08;24.90;97.70
9998;DHT22;5038;53.064;8.624;2023-06-26T13:17:37;24.90;97.80
9998;DHT22;5038;53.064;8.624;2023-06-26T13:20:06;24.90;97.80
9998;DHT22;5038;53.064;8.624;2023-06-26T13:22:35;24.90;98.00
9998;DHT22;5038;53.064;8.624;2023-06-26T13:25:04;25.10;98.10
9998;DHT22;5038;53.064;8.624;2023-06-26T13:27:33;25.10;98.00
9998;DHT22;5038;53.064;8.624;2023-06-26T13:30:03;25.10;97.90
9998;DHT22;5038;53.064;8.624;2023-06-26T13:32:35;25.00;97.80
9998;DHT22;5038;53.064;8.624;2023-06-26T13:35:13;25.00;97.70
9998;DHT22;5038;53.064;8.624;2023-06-26T13:37:45;24.90;97.60
9998;DHT22;5038;53.064;8.624;2023-06-26T13:40:14;24.90;97.60
9998;DHT22;5038;53.064;8.624;2023-06-26T13:42:42;24.90;97.50
9998;DHT22;5038;53.064;8.624;2023-06-26T13:45:12;24.90;97.40
9998;DHT22;5038;53.064;8.624;2023-06-26T13:47:57;24.90;97.40
9998;DHT22;5038;53.064;8.624;2023-06-26T13:50:25;24.90;97.50
9998;DHT22;5038;53.064;8.624;2023-06-26T13:53:14;24.90;97.40
9998;DHT22;5038;53.064;8.624;2023-06-26T13:55:43;24.90;97.50
9998;DHT22;5038;53.064;8.624;2023-06-26T13:58:12;24.90;97.40
9998;DHT22;5038;53.064;8.624;2023-06-26T14:03:10;24.70;97.30
9998;DHT22;5038;53.064;8.624;2023-06-26T14:05:40;24.70;97.20
9998;DHT22;5038;53.064;8.624;2023-06-26T14:08:10;24.60;97.20
9998;DHT22;5038;53.064;8.624;2023-06-26T14:10:42;24.50;97.10
9998;DHT22;5038;53.064;8.624;2023-06-26T14:13:12;24.50;97.10
9998;DHT22;5038;53.064;8.624;2023-06-26T14:15:46;24.40;97.00
9998;DHT22;5038;53.064;8.624;2023-06-26T14:18:16;24.30;97.30
9998;DHT22;5038;53.064;8.624;2023-06-26T14:20:50;24.20;97.00
9998;DHT22;5038;53.064;8.624;2023-06-26T14:23:22;24.10;97.10
9998;DHT22;5038;53.064;8.624;2023-06-26T14:25:52;24.10;97.20
9998;DHT22;5038;53.064;8.624;2023-06-26T14:28:21;24.10;97.20
9998;DHT22;5038;53.064;8.624;2023-06-26T14:30:54;24.10;97.10
9998;DHT22;5038;53.064;8.624;2023-06-26T14:33:28;24.00;97.10
9998;DHT22;5038;53.064;8.624;2023-06-26T14:36:02;24.00;97.10
9998;DHT22;5038;53.064;8.624;2023-06-26T14:38:32;24.00;97.00
9998;DHT22;5038;53.064;8.624;2023-06-26T14:41:04;23.90;96.90
9998;DHT22;5038;53.064;8.624;2023-06-26T14:43:36;23.80;97.00
9998;DHT22;5038;53.064;8.624;2023-06-26T14:46:10;23.80;97.10
9998;DHT22;5038;53.064;8.624;2023-06-26T14:48:42;23.90;97.00
9998;DHT22;5038;53.064;8.624;2023-06-26T14:51:12;23.90;96.90
9998;DHT22;5038;53.064;8.624;2023-06-26T14:53:42;23.90;96.90
9998;DHT22;5038;53.064;8.624;2023-06-26T14:56:13;23.80;96.90
9998;DHT22;5038;53.064;8.624;2023-06-26T14:58:47;23.80;96.90
9998;DHT22;5038;53.064;8.624;2023-06-26T15:01:17;23.80;96.90
9998;DHT22;5038;53.064;8.624;2023-06-26T15:03:46;23.70;97.10
9998;DHT22;5038;53.064;8.624;2023-06-26T15:06:15;23.70;96.80
9998;DHT22;5038;53.064;8.624;2023-06-26T15:08:43;23.60;96.90
9998;DHT22;5038;53.064;8.624;2023-06-26T15:11:12;23.60;97.00
9998;DHT22;5038;53.064;8.624;2023-06-26T15:13:40;23.50;97.10
9998;DHT22;5038;53.064;8.624;2023-06-26T15:16:08;23.50;97.30
9998;DHT22;5038;53.064;8.624;2023-06-26T15:18:38;23.50;97.20
9998;DHT22;5038;53.064;8.624;2023-06-26T15:21:06;23.50;97.10
9998;DHT22;5038;53.064;8.624;2023-06-26T15:23:34;23.50;97.10
9998;DHT22;5038;53.064;8.624;2023-06-26T15:26:03;23.50;97.10
9998;DHT22;5038;53.064;8.624;2023-06-26T15:28:31;23.50;97.00
9998;DHT22;5038;53.064;8.624;2023-06-26T15:30:59;23.50;97.00
9998;DHT22;5038;53.064;8.624;2023-06-26T15:33:28;23.40;96.90
9998;DHT22;5038;53.064;8.624;2023-06-26T15:35:58;23.40;97.10
9998;DHT22;5038;53.064;8.624;2023-06-26T15:39:06;23.40;96.80
9998;DHT22;5038;53.064;8.624;2023-06-26T15:42:28;23.30;96.60
9998;DHT22;5038;53.064;8.624;2023-06-26T15:44:57;23.30;96.80
9998;DHT22;5038;53.064;8.624;2023-06-26T15:47:26;23.30;96.90
9998;DHT22;5038;53.064;8.624;2023-06-26T15:49:57;23.40;96.90
9998;DHT22;5038;53.064;8.624;2023-06-26T15:52:28;23.40;96.70
9998;DHT22;5038;53.064;8.624;2023-06-26T15:54:59;23.40;96.60
9998;DHT22;5038;53.064;8.624;2023-06-26T15:57:32;23.40;96.40
9998;DHT22;5038;53.064;8.624;2023-06-26T16:00:04;23.40;96.60
9998;DHT22;5038;53.064;8.624;2023-06-26T16:02:43;23.40;96.20
9998;DHT22;5038;53.064;8.624;2023-06-26T16:05:23;23.40;96.00
9998;DHT22;5038;53.064;8.624;2023-06-26T16:07:57;23.30;96.00
9998;DHT22;5038;53.064;8.624;2023-06-26T16:10:30;23.30;96.00
9998;DHT22;5038;53.064;8.624;2023-06-26T16:13:00;23.40;96.10
9998;DHT22;5038;53.064;8.624;2023-06-26T16:15:34;23.40;96.10
9998;DHT22;5038;53.064;8.624;2023-06-26T16:18:03;23.40;95.80
9998;DHT22;5038;53.064;8.624;2023-06-26T16:20:32;23.40;95.80
9998;DHT22;5038;53.064;8.624;2023-06-26T16:23:07;23.40;95.80